Time;durP1;ratioP1;P1;durP2;ratioP2;P2;SDS_P1;SDS_P2;PMS_P1;PMS_P2;Temp;Humidity;BMP_temperature;BMP_pressure;BME280_temperature;BME280_humidity;BME280_pressure;Samples;Min_cycle;Max_cycle;Signal;HPM_P1;HPM_P2
2022/01/21 00:01:49;;;;;;;0.10;0.10;;;;;;;-3.32;100.00;101959.47;5027988;28;20052;-78
2022/01/21 00:04:23;;;;;;;0.20;0.20;;;;;;;-3.42;100.00;101949.75;5025530;28;20175;-78
2022/01/21 00:06:57;;;;;;;0.10;0.10;;;;;;;-3.34;100.00;101953.47;5026940;28;20042;-78
2022/01/21 00:09:30;;;;;;;0.10;0.10;;;;;;;-3.36;100.00;101947.47;5027762;28;20049;-78
2022/01/21 00:12:05;;;;;;;0.10;0.10;;;;;;;-3.35;100.00;101954.47;5024929;28;20051;-78
2022/01/21 00:14:38;;;;;;;0.10;0.10;;;;;;;-3.44;100.00;101950.91;5048533;28;20497;-78
2022/01/21 00:17:11;;;;;;;0.10;0.10;;;;;;;-3.39;100.00;101953.94;5025416;28;20060;-79
2022/01/21 00:19:43;;;;;;;0.20;0.20;;;;;;;-3.43;100.00;101961.38;5027892;28;20049;-80
2022/01/21 00:30:46;;;;;;;0.10;0.10;;;;;;;-3.43;100.00;101950.72;5027107;28;20049;-77
2022/01/21 00:33:20;;;;;;;0.20;0.20;;;;;;;-3.54;100.00;101937.69;5027146;28;20041;-78
2022/01/21 00:35:53;;;;;;;0.15;0.15;;;;;;;-3.49;100.00;101945.22;5030166;28;20052;-77
2022/01/21 00:38:25;;;;;;;0.20;0.20;;;;;;;-3.59;100.00;101924.88;5027216;28;20046;-77
2022/01/21 00:41:02;;;;;;;0.20;0.20;;;;;;;-3.54;100.00;101948.34;5025885;28;20056;-78
2022/01/21 00:43:33;;;;;;;0.10;0.10;;;;;;;-3.48;100.00;101947.72;5029733;28;20500;-80
2022/01/21 00:46:06;;;;;;;0.10;0.10;;;;;;;-3.49;100.00;101947.88;5030556;28;20033;-76
2022/01/21 00:48:39;;;;;;;0.10;0.10;;;;;;;-3.56;100.00;101957.47;5029016;28;20060;-78
2022/01/21 00:51:12;;;;;;;0.15;0.15;;;;;;;-3.56;100.00;101960.13;5022571;28;20061;-77
2022/01/21 00:53:47;;;;;;;0.10;0.10;;;;;;;-3.56;100.00;101955.66;5025057;28;20078;-78
2022/01/21 00:56:20;;;;;;;0.10;0.10;;;;;;;-3.50;100.00;101960.34;5030194;28;20049;-77
2022/01/21 00:58:48;;;;;;;0.10;0.10;;;;;;;-3.43;100.00;101960.56;5024378;28;20052;-77
2022/01/21 01:01:22;;;;;;;0.10;0.10;;;;;;;-3.49;100.00;101948.72;5021873;28;20061;-78
2022/01/21 01:03:55;;;;;;;0.10;0.10;;;;;;;-3.52;100.00;101949.03;5027513;28;20375;-78
2022/01/21 01:06:23;;;;;;;0.10;0.10;;;;;;;-3.56;100.00;101954.81;5027303;28;20489;-78
2022/01/21 01:08:57;;;;;;;0.15;0.15;;;;;;;-3.70;100.00;101949.06;5027545;28;20068;-79
2022/01/21 01:11:45;;;;;;;0.10;0.10;;;;;;;-3.65;100.00;101951.25;5023599;28;20122;-77
2022/01/21 01:20:03;;;;;;;0.10;0.10;;;;;;;-3.66;100.00;101950.44;5025558;28;20052;-78
2022/01/21 01:22:44;;;;;;;0.20;0.20;;;;;;;-3.57;100.00;101956.63;5023946;28;20045;-77
2022/01/21 01:28:01;;;;;;;0.10;0.10;;;;;;;-3.51;100.00;101956.00;5026540;28;20052;-78
2022/01/21 01:30:32;;;;;;;0.10;0.10;;;;;;;-3.47;100.00;101957.38;5027002;28;20064;-78
2022/01/21 01:33:08;;;;;;;0.10;0.10;;;;;;;-3.50;100.00;101960.34;5028888;28;20678;-79
2022/01/21 01:35:43;;;;;;;0.10;0.10;;;;;;;-3.47;100.00;101961.88;5027392;28;20603;-76
2022/01/21 01:41:07;;;;;;;0.10;0.10;;;;;;;-3.47;100.00;101961.88;5026852;28;20057;-77
2022/01/21 01:49:29;;;;;;;0.20;0.20;;;;;;;-3.51;100.00;101950.69;5025609;28;20049;-78
2022/01/21 01:52:05;;;;;;;0.20;0.20;;;;;;;-3.48;100.00;101958.38;5023991;28;20056;-79
2022/01/21 01:54:41;;;;;;;0.10;0.10;;;;;;;-3.48;100.00;101953.06;5029268;28;20469;-77
2022/01/21 01:57:16;;;;;;;0.10;0.10;;;;;;;-3.44;100.00;101956.22;5024247;28;20049;-78
2022/01/21 01:59:50;;;;;;;0.10;0.10;;;;;;;-3.47;100.00;101948.56;5027117;28;20410;-78
2022/01/21 02:02:20;;;;;;;0.10;0.10;;;;;;;-3.53;100.00;101946.53;5027378;28;20057;-78
2022/01/21 02:04:53;;;;;;;0.20;0.20;;;;;;;-3.55;100.00;101948.50;5024188;28;20049;-77
2022/01/21 02:07:21;;;;;;;0.13;0.13;;;;;;;-3.55;100.00;101951.16;5023564;28;20053;-77
2022/01/21 02:09:49;;;;;;;0.20;0.20;;;;;;;-3.53;100.00;101944.69;5026268;28;20060;-79
2022/01/21 02:12:19;;;;;;;0.20;0.20;;;;;;;-3.47;100.00;101954.69;5022395;28;20069;-79
2022/01/21 02:14:54;;;;;;;0.10;0.10;;;;;;;-3.66;100.00;101934.47;5027846;28;20045;-77
2022/01/21 02:22:59;;;;;;;0.10;0.10;;;;;;;-3.62;100.00;101935.81;5023323;28;20080;-78
2022/01/21 02:25:32;;;;;;;0.10;0.10;;;;;;;-3.60;100.00;101933.81;5023192;28;20064;-78
2022/01/21 02:28:01;;;;;;;0.10;0.10;;;;;;;-3.65;100.00;101938.78;5025323;28;20050;-78
2022/01/21 02:30:36;;;;;;;0.10;0.10;;;;;;;-3.63;100.00;101941.31;5027719;28;20044;-77
2022/01/21 02:33:09;;;;;;;0.10;0.10;;;;;;;-3.76;100.00;101939.03;5041834;28;20064;-78
2022/01/21 02:35:43;;;;;;;0.10;0.10;;;;;;;-3.78;100.00;101952.47;5023356;28;20044;-77
2022/01/21 02:38:18;;;;;;;0.10;0.10;;;;;;;-3.67;100.00;101969.22;5021593;28;20045;-78
2022/01/21 02:40:51;;;;;;;0.10;0.10;;;;;;;-3.73;100.00;101969.81;5028857;28;20162;-77
2022/01/21 02:43:25;;;;;;;0.10;0.10;;;;;;;-3.60;100.00;101965.75;5026853;28;20505;-77
2022/01/21 02:46:03;;;;;;;0.10;0.10;;;;;;;-3.57;100.00;101969.13;5024705;28;20132;-78
2022/01/21 02:48:38;;;;;;;0.10;0.10;;;;;;;-3.60;100.00;101971.06;5040920;28;20061;-77
2022/01/21 02:51:14;;;;;;;0.10;0.10;;;;;;;-3.64;100.00;101972.38;5027591;28;20045;-77
2022/01/21 02:54:07;;;;;;;0.20;0.20;;;;;;;-3.64;100.00;101968.91;5025390;28;21569;-78
2022/01/21 02:56:40;;;;;;;0.10;0.10;;;;;;;-3.66;100.00;101966.38;5021205;28;20050;-78
2022/01/21 02:59:14;;;;;;;0.15;0.15;;;;;;;-3.71;100.00;101967.84;5027829;28;20055;-78
2022/01/21 03:01:43;;;;;;;0.20;0.20;;;;;;;-3.82;100.00;101953.78;5026074;28;20077;-77
2022/01/21 03:04:25;;;;;;;0.20;0.20;;;;;;;-3.87;100.00;101949.91;5039547;28;20129;-79
2022/01/21 03:06:59;;;;;;;0.10;0.10;;;;;;;-3.87;100.00;101952.56;5024493;28;20264;-78
2022/01/21 03:09:34;;;;;;;0.17;0.17;;;;;;;-3.89;100.00;101957.19;5021450;28;20052;-76
2022/01/21 03:12:03;;;;;;;0.10;0.10;;;;;;;-3.89;100.00;101954.53;5028204;28;20057;-78
2022/01/21 03:14:36;;;;;;;0.10;0.10;;;;;;;-3.90;100.00;101942.25;5025845;28;20049;-78
2022/01/21 03:17:04;;;;;;;0.10;0.10;;;;;;;-3.77;100.00;101937.34;5022111;28;20409;-78
2022/01/21 03:19:37;;;;;;;0.20;0.20;;;;;;;-3.67;100.00;101943.44;5026008;28;20052;-79
2022/01/21 03:22:12;;;;;;;0.10;0.10;;;;;;;-3.65;100.00;101940.59;5018635;28;20049;-77
2022/01/21 03:24:47;;;;;;;0.10;0.10;;;;;;;-3.68;100.00;101936.44;5032901;28;20405;-77
2022/01/21 03:27:20;;;;;;;0.10;0.10;;;;;;;-3.55;100.00;101941.34;5024754;28;20041;-78
2022/01/21 03:29:53;;;;;;;0.10;0.10;;;;;;;-3.51;100.00;101942.69;5023834;28;20053;-78
2022/01/21 03:32:33;;;;;;;0.10;0.10;;;;;;;-3.43;100.00;101948.06;5021380;28;20053;-78
2022/01/21 03:35:07;;;;;;;0.20;0.20;;;;;;;-3.50;100.00;101947.03;5022071;28;20056;-77
2022/01/21 03:37:40;;;;;;;0.20;0.20;;;;;;;-3.42;100.00;101952.41;5018103;28;20054;-78
2022/01/21 03:40:15;;;;;;;0.10;0.10;;;;;;;-3.48;100.00;101941.56;5019846;28;20053;-79
2022/01/21 03:42:43;;;;;;;0.10;0.10;;;;;;;-3.57;100.00;101945.16;5020746;28;20053;-78
2022/01/21 03:45:16;;;;;;;0.10;0.10;;;;;;;-3.73;100.00;101920.09;5027044;28;20529;-77
2022/01/21 03:47:52;;;;;;;0.20;0.20;;;;;;;-3.51;100.00;101956.00;5024715;28;20125;-77
2022/01/21 03:50:31;;;;;;;0.10;0.10;;;;;;;-3.46;100.00;101951.06;5021907;28;20501;-77
2022/01/21 03:53:05;;;;;;;0.20;0.20;;;;;;;-3.52;100.00;101953.50;5025466;28;20494;-78
2022/01/21 03:55:41;;;;;;;0.20;0.20;;;;;;;-3.57;100.00;101948.66;5026756;28;20060;-78
2022/01/21 03:58:11;;;;;;;0.10;0.10;;;;;;;-3.60;100.00;101955.13;5023444;28;20045;-78
2022/01/21 04:00:49;;;;;;;0.10;0.10;;;;;;;-3.65;100.00;101952.06;5024077;28;20045;-77
2022/01/21 04:03:25;;;;;;;0.10;0.10;;;;;;;-3.54;100.00;101951.00;5028560;28;20049;-77
2022/01/21 04:05:59;;;;;;;0.10;0.10;;;;;;;-3.51;100.00;101942.69;5028782;28;20056;-79
2022/01/21 04:08:32;;;;;;;0.10;0.10;;;;;;;-3.55;100.00;101932.53;5030657;28;20134;-79
2022/01/21 04:11:07;;;;;;;0.10;0.10;;;;;;;-3.45;100.00;101943.94;5026757;28;20425;-77
2022/01/21 04:13:46;;;;;;;0.10;0.10;;;;;;;-3.37;100.00;101936.00;5026215;28;20058;-79
2022/01/21 04:16:20;;;;;;;0.10;0.10;;;;;;;-3.20;100.00;101941.41;5025713;28;20042;-78
2022/01/21 04:18:54;;;;;;;0.10;0.10;;;;;;;-3.16;100.00;101932.09;5024411;28;20062;-78
2022/01/21 04:21:28;;;;;;;0.15;0.15;;;;;;;-3.14;100.00;101932.78;5026360;28;20076;-77
2022/01/21 04:24:02;;;;;;;0.10;0.10;;;;;;;-3.14;100.00;101932.78;5029456;28;20386;-77
2022/01/21 04:26:41;;;;;;;0.10;0.10;;;;;;;-3.22;100.00;101928.25;5028803;28;20049;-78
2022/01/21 04:29:15;;;;;;;0.15;0.15;;;;;;;-3.30;100.00;101914.88;5030824;28;20046;-78
2022/01/21 04:31:52;;;;;;;0.10;0.10;;;;;;;-3.22;100.00;101920.25;5030262;28;20048;-78
2022/01/21 04:34:30;;;;;;;0.10;0.10;;;;;;;-3.27;100.00;101909.25;5041208;28;21255;-79
2022/01/21 04:37:07;;;;;;;0.20;0.20;;;;;;;-3.19;100.00;101908.47;5028432;28;20041;-78
2022/01/21 04:40:06;;;;;;;0.20;0.20;;;;;;;-3.27;100.00;101907.44;5028647;28;20065;-81
2022/01/21 04:48:17;;;;;;;0.10;0.10;;;;;;;-3.34;100.00;101898.41;5023996;28;20057;-78
2022/01/21 04:50:54;;;;;;;0.10;0.10;;;;;;;-3.34;100.00;101898.41;5025217;28;20493;-77
2022/01/21 04:53:32;;;;;;;0.10;0.10;;;;;;;-3.33;100.00;101904.56;5025548;28;20061;-77
2022/01/21 04:56:14;;;;;;;0.10;0.10;;;;;;;-3.29;100.00;101900.59;5041095;28;20053;-77
2022/01/21 04:58:49;;;;;;;0.10;0.10;;;;;;;-3.19;100.00;101901.31;5028166;28;20053;-79
2022/01/21 05:01:23;;;;;;;0.10;0.10;;;;;;;-3.15;100.00;101894.69;5026498;28;20080;-78
2022/01/21 05:03:52;;;;;;;0.10;0.10;;;;;;;-3.05;100.00;101897.22;5024472;28;20056;-78
2022/01/21 05:06:25;;;;;;;0.10;0.10;;;;;;;-2.94;100.00;101898.75;5029046;28;20050;-78
2022/01/21 05:09:00;;;;;;;0.20;0.20;;;;;;;-2.92;100.00;101894.09;5026458;28;20053;-77
2022/01/21 05:11:37;;;;;;;0.10;0.10;;;;;;;-2.95;100.00;101895.25;5027870;28;20065;-78
2022/01/21 05:14:17;;;;;;;0.10;0.10;;;;;;;-2.93;100.00;101898.63;5032443;28;20041;-78
2022/01/21 05:17:04;;;;;;;0.10;0.10;;;;;;;-2.94;100.00;101901.41;5024606;28;20046;-79
2022/01/21 05:19:32;;;;;;;0.10;0.10;;;;;;;-2.84;100.00;101899.47;5027278;28;20099;-77
2022/01/21 05:22:16;;;;;;;0.10;0.10;;;;;;;-2.87;100.00;101910.44;5029107;28;20433;-78
2022/01/21 05:24:51;;;;;;;0.10;0.10;;;;;;;-2.89;100.00;101906.28;5027461;28;20045;-78
2022/01/21 05:27:25;;;;;;;0.10;0.10;;;;;;;-2.83;100.00;101917.13;5027662;28;20050;-79
2022/01/21 05:30:00;;;;;;;0.10;0.10;;;;;;;-2.78;100.00;101903.31;5025537;28;20045;-78
2022/01/21 05:32:51;;;;;;;0.10;0.10;;;;;;;-2.77;100.00;101915.66;5020545;28;20053;-78
2022/01/21 05:35:43;;;;;;;0.10;0.10;;;;;;;-2.67;100.00;101913.69;5028854;28;20049;-78
2022/01/21 05:38:35;;;;;;;0.10;0.10;;;;;;;-2.66;100.00;101914.53;5029593;28;20048;-78
2022/01/21 05:41:22;;;;;;;0.10;0.10;;;;;;;-2.67;100.00;101907.53;5028014;28;20540;-78
2022/01/21 05:46:23;;;;;;;0.10;0.10;;;;;;;-2.61;100.00;101931.69;5029677;28;20046;-77
2022/01/21 05:47:30;;;;;;;0.10;0.10;;;;;;;-2.70;100.00;101935.31;5026220;28;20053;-78
2022/01/21 05:50:22;;;;;;;0.10;0.10;;;;;;;-2.61;100.00;101941.50;5028726;28;20069;-79
2022/01/21 05:53:28;;;;;;;0.10;0.10;;;;;;;-2.50;100.00;101943.03;4995118;28;20058;-79
2022/01/21 05:56:25;;;;;;;0.10;0.10;;;;;;;-2.42;100.00;101941.25;5019842;28;20514;-78
2022/01/21 05:59:06;;;;;;;0.10;0.10;;;;;;;-2.23;100.00;101948.09;5037807;28;20041;-77
2022/01/21 06:01:37;;;;;;;0.10;0.10;;;;;;;-2.09;100.00;101949.28;5024404;28;20481;-78
2022/01/21 06:04:12;;;;;;;0.32;0.10;;;;;;;-1.95;100.00;101955.81;5027422;28;20057;-78
2022/01/21 06:06:45;;;;;;;0.10;0.10;;;;;;;-1.96;100.00;101953.31;5023060;28;20072;-78
2022/01/21 06:09:18;;;;;;;0.10;0.10;;;;;;;-2.01;100.00;101955.66;5025535;28;20061;-77
2022/01/21 06:11:52;;;;;;;0.10;0.10;;;;;;;-1.92;100.00;101949.31;5021348;28;20056;-78
2022/01/21 06:14:25;;;;;;;0.10;0.10;;;;;;;-2.00;100.00;101949.31;5025313;28;20064;-79
2022/01/21 06:16:58;;;;;;;0.10;0.10;;;;;;;-2.00;100.00;101938.63;5022407;28;20053;-79
2022/01/21 06:19:33;;;;;;;0.20;0.20;;;;;;;-2.05;100.00;101945.31;5027626;28;20048;-79
2022/01/21 06:22:06;;;;;;;0.00;0.00;;;;;;;-2.09;100.00;101951.16;5028320;28;20056;-77
2022/01/21 06:24:39;;;;;;;0.10;0.10;;;;;;;-2.21;100.00;101947.94;5022281;28;20053;-78
2022/01/21 06:27:13;;;;;;;0.10;0.10;;;;;;;-2.14;100.00;101953.47;5029247;28;20124;-77
2022/01/21 06:29:46;;;;;;;0.10;0.10;;;;;;;-2.12;100.00;101946.97;5026482;28;20053;-77
2022/01/21 06:32:19;;;;;;;0.10;0.10;;;;;;;-2.20;100.00;101952.28;5026888;28;20056;-78
2022/01/21 06:34:54;;;;;;;0.10;0.10;;;;;;;-2.23;100.00;101961.44;5026718;28;20049;-77
2022/01/21 06:37:27;;;;;;;0.10;0.10;;;;;;;-2.30;100.00;101962.28;5021031;28;20060;-79
2022/01/21 06:40:00;;;;;;;0.10;0.10;;;;;;;-2.25;100.00;101963.47;5020546;28;20061;-77
2022/01/21 06:42:34;;;;;;;0.10;0.10;;;;;;;-2.17;100.00;101965.28;5022219;28;20038;-78
2022/01/21 06:45:08;;;;;;;0.20;0.20;;;;;;;-2.24;100.00;101970.47;5027740;28;20270;-78
2022/01/21 06:47:36;;;;;;;0.10;0.10;;;;;;;-2.13;100.00;101974.63;5026895;28;20049;-78
2022/01/21 06:50:11;;;;;;;0.10;0.10;;;;;;;-2.16;100.00;101984.81;5026797;28;20050;-78
2022/01/21 06:52:39;;;;;;;0.10;0.10;;;;;;;-2.20;100.00;101994.13;5022037;28;20406;-77
2022/01/21 06:55:13;;;;;;;0.10;0.10;;;;;;;-1.97;100.00;101997.03;5022882;28;20045;-78
2022/01/21 06:57:41;;;;;;;0.10;0.10;;;;;;;-2.05;100.00;101998.66;5026840;28;20422;-78
2022/01/21 07:00:18;;;;;;;0.00;0.00;;;;;;;-2.05;100.00;102019.19;5024298;28;20061;-79
2022/01/21 07:02:53;;;;;;;0.10;0.10;;;;;;;-2.09;100.00;101997.31;5026568;28;20056;-78
2022/01/21 07:05:29;;;;;;;0.10;0.10;;;;;;;-2.05;100.00;102003.16;5020840;28;20053;-79
2022/01/21 07:08:03;;;;;;;0.05;0.05;;;;;;;-2.02;100.00;102008.16;5024943;28;20041;-78
2022/01/21 07:10:36;;;;;;;0.10;0.10;;;;;;;-2.09;100.00;101997.31;5017871;28;20058;-78
2022/01/21 07:13:10;;;;;;;0.10;0.10;;;;;;;-2.16;100.00;101990.97;5024251;28;20037;-79
2022/01/21 07:15:43;;;;;;;0.20;0.20;;;;;;;-2.14;100.00;101997.00;5029727;28;20481;-78
2022/01/21 07:18:12;;;;;;;0.10;0.10;;;;;;;-2.14;100.00;101994.31;5023118;28;20072;-79
2022/01/21 07:20:46;;;;;;;0.13;0.13;;;;;;;-2.18;100.00;102003.66;5026374;28;20050;-77
2022/01/21 07:23:19;;;;;;;0.10;0.10;;;;;;;-2.20;100.00;102002.97;5024331;28;20049;-80
2022/01/21 07:25:53;;;;;;;0.10;0.10;;;;;;;-2.25;100.00;102008.78;5024193;28;20048;-78
2022/01/21 07:28:26;;;;;;;0.20;0.20;;;;;;;-2.19;100.00;102007.31;5028929;28;20045;-80
2022/01/21 07:30:59;;;;;;;0.10;0.10;;;;;;;-2.24;100.00;102015.81;5020091;28;20061;-78
2022/01/21 07:33:32;;;;;;;0.20;0.20;;;;;;;-2.14;100.00;102025.47;5025270;28;20045;-80
2022/01/21 07:36:07;;;;;;;0.10;0.10;;;;;;;-2.14;100.00;102025.47;5023784;28;20050;-78
2022/01/21 07:38:41;;;;;;;0.10;0.10;;;;;;;-2.20;100.00;102026.97;5022835;28;20053;-81
2022/01/21 07:41:14;;;;;;;0.10;0.10;;;;;;;-2.25;100.00;102039.94;5039176;28;20618;-79
2022/01/21 07:43:42;;;;;;;0.10;0.10;;;;;;;-2.23;100.00;102036.13;5028393;28;20052;-78
2022/01/21 07:46:17;;;;;;;0.10;0.10;;;;;;;-2.26;100.00;102038.28;5035083;28;20498;-80
2022/01/21 07:48:45;;;;;;;0.10;0.10;;;;;;;-2.29;100.00;102035.91;5040884;28;20057;-81
2022/01/21 07:51:15;;;;;;;0.10;0.10;;;;;;;-2.30;100.00;102044.94;5025052;28;20046;-81
2022/01/21 07:53:48;;;;;;;0.10;0.10;;;;;;;-2.37;100.00;102044.75;5026088;28;20042;-79
2022/01/21 07:56:21;;;;;;;0.15;0.15;;;;;;;-2.36;100.00;102051.75;5026374;28;20041;-80
2022/01/21 07:58:54;;;;;;;0.10;0.10;;;;;;;-2.30;100.00;102055.59;5023456;28;20049;-78
2022/01/21 08:01:22;;;;;;;0.10;0.10;;;;;;;-2.26;100.00;102052.44;5026756;28;20057;-79
2022/01/21 08:03:55;;;;;;;0.13;0.13;;;;;;;-2.18;100.00;102053.47;5023690;28;20049;-79
2022/01/21 08:06:31;;;;;;;0.10;0.10;;;;;;;-2.19;100.00;102051.81;5029226;28;20050;-78
2022/01/21 08:09:05;;;;;;;0.10;0.10;;;;;;;-2.10;100.00;102057.03;5024708;28;20046;-80
2022/01/21 08:11:38;;;;;;;0.10;0.10;;;;;;;-2.03;100.00;102056.34;5038607;28;20054;-80
2022/01/21 08:14:12;;;;;;;0.10;0.10;;;;;;;-1.95;100.00;102053.72;5011969;28;20618;-80
2022/01/21 08:16:45;;;;;;;0.10;0.10;;;;;;;-1.97;100.00;102056.53;5011716;28;20076;-82
2022/01/21 08:19:14;;;;;;;0.10;0.10;;;;;;;-1.94;100.00;102058.06;5013881;28;20072;-81
2022/01/21 08:21:43;;;;;;;0.10;0.10;;;;;;;-1.89;100.00;102075.25;5014591;28;20064;-79
2022/01/21 08:24:16;;;;;;;0.20;0.20;;;;;;;-1.84;100.00;102055.25;5008972;28;20053;-80
2022/01/21 08:26:50;;;;;;;0.10;0.10;;;;;;;-1.91;100.00;102055.88;5010439;28;22045;-80
2022/01/21 08:29:23;;;;;;;0.10;0.10;;;;;;;-1.85;100.00;102054.41;4997982;28;20057;-79
2022/01/21 08:31:56;;;;;;;0.10;0.10;;;;;;;-1.85;100.00;102064.25;4994745;28;20053;-80
2022/01/21 08:34:34;;;;;;;0.10;0.10;;;;;;;-1.89;100.00;102050.41;4993558;28;20060;-79
2022/01/21 08:37:09;;;;;;;0.10;0.10;;;;;;;-1.81;100.00;102079.78;5002395;28;20044;-79
2022/01/21 08:39:43;;;;;;;0.10;0.10;;;;;;;-1.75;100.00;102080.97;4997736;28;20477;-79
2022/01/21 08:42:16;;;;;;;0.10;0.10;;;;;;;-1.78;100.00;102087.44;5008131;28;20433;-79
2022/01/21 08:44:49;;;;;;;0.10;0.10;;;;;;;-1.76;100.00;102089.97;4999547;28;20055;-80
2022/01/21 08:47:20;;;;;;;0.10;0.10;;;;;;;-1.79;100.00;102091.13;4998973;28;20061;-79
2022/01/21 08:49:55;;;;;;;0.20;0.20;;;;;;;-1.79;100.00;102087.63;4998699;28;20046;-79
2022/01/21 08:52:32;;;;;;;0.10;0.10;;;;;;;-1.81;100.00;102092.28;5006304;28;20053;-80
2022/01/21 08:55:07;;;;;;;0.20;0.20;;;;;;;-1.85;100.00;102105.13;5003024;28;20088;-80
2022/01/21 08:57:43;;;;;;;0.13;0.13;;;;;;;-1.80;100.00;102101.94;5004008;28;20056;-80
2022/01/21 09:00:16;;;;;;;0.10;0.10;;;;;;;-1.80;100.00;102094.78;5009474;28;20049;-78
2022/01/21 09:02:51;;;;;;;0.13;0.13;;;;;;;-1.72;100.00;102096.63;5001509;28;20057;-79
2022/01/21 09:05:19;;;;;;;0.10;0.10;;;;;;;-1.57;100.00;102094.16;4994842;28;20561;-79
2022/01/21 09:07:53;;;;;;;0.10;0.10;;;;;;;-1.60;100.00;102105.16;4996421;28;20065;-79
2022/01/21 09:10:27;;;;;;;0.10;0.10;;;;;;;-1.54;100.00;102099.19;4997213;28;20854;-80
2022/01/21 09:13:00;;;;;;;0.10;0.10;;;;;;;-1.52;100.00;102096.34;4998463;28;20053;-79
2022/01/21 09:15:28;;;;;;;0.10;0.10;;;;;;;-1.46;100.00;102093.03;5002655;28;20053;-79
2022/01/21 09:18:03;;;;;;;0.10;0.10;;;;;;;-1.43;100.00;102098.84;4994132;28;20057;-81
2022/01/21 09:20:31;;;;;;;0.10;0.10;;;;;;;-1.38;100.00;102103.72;5008446;28;20069;-79
2022/01/21 09:23:06;;;;;;;0.10;0.10;;;;;;;-1.34;100.00;102102.38;4995868;28;20368;-81
2022/01/21 09:25:39;;;;;;;0.10;0.10;;;;;;;-1.38;100.00;102104.53;4999925;28;20061;-79
2022/01/21 09:28:13;;;;;;;0.20;0.20;;;;;;;-1.25;100.00;102097.88;5003266;28;20049;-80
2022/01/21 09:30:46;;;;;;;0.10;0.10;;;;;;;-1.27;100.00;102103.38;4995692;28;20929;-80
2022/01/21 09:33:20;;;;;;;0.10;0.10;;;;;;;-1.19;100.00;102107.88;4998265;28;20057;-80
2022/01/21 09:35:48;;;;;;;0.10;0.10;;;;;;;-1.21;100.00;102101.88;4995490;28;20121;-79
2022/01/21 09:38:18;;;;;;;0.10;0.10;;;;;;;-1.09;100.00;102105.91;4998622;28;20161;-79
2022/01/21 09:40:52;;;;;;;0.10;0.10;;;;;;;-1.09;100.00;102102.38;4997574;28;20108;-80
2022/01/21 09:43:21;;;;;;;0.10;0.10;;;;;;;-0.99;100.00;102105.72;4996925;28;20076;-81
2022/01/21 09:45:56;;;;;;;0.17;0.17;;;;;;;-0.99;100.00;102112.91;4994755;28;20045;-80
2022/01/21 09:48:29;;;;;;;0.20;0.20;;;;;;;-1.04;100.00;102114.25;4993819;28;20448;-79
2022/01/21 09:51:00;;;;;;;0.17;0.17;;;;;;;-0.94;100.00;102113.22;5001267;28;20061;-78
2022/01/21 09:53:31;;;;;;;0.13;0.13;;;;;;;-0.91;100.00;102107.53;5006372;28;20053;-79
2022/01/21 09:56:06;;;;;;;0.20;0.20;;;;;;;-0.86;100.00;102108.72;4991572;28;20086;-79
2022/01/21 09:58:44;;;;;;;0.20;0.20;;;;;;;-0.79;100.00;102103.50;4992058;28;20532;-81
2022/01/21 10:01:20;;;;;;;0.10;0.10;;;;;;;-0.77;100.00;102090.84;5008965;28;20049;-77
2022/01/21 10:03:54;;;;;;;0.10;0.10;;;;;;;-0.73;100.00;102100.19;4997428;28;20065;-80
2022/01/21 10:06:28;;;;;;;0.10;0.10;;;;;;;-0.70;100.00;102091.81;5000156;28;20073;-78
2022/01/21 10:09:03;;;;;;;0.10;0.10;;;;;;;-0.60;100.00;102091.63;4996157;28;20072;-81
2022/01/21 10:11:37;;;;;;;0.17;0.17;;;;;;;-0.56;100.00;102106.31;4993182;28;20406;-79
2022/01/21 10:14:10;;;;;;;0.13;0.13;;;;;;;-0.56;100.00;102100.16;4997584;28;20706;-78
2022/01/21 10:16:43;;;;;;;0.10;0.10;;;;;;;-0.39;100.00;102101.78;5002080;28;20050;-79
2022/01/21 10:19:12;;;;;;;0.10;0.10;;;;;;;-0.29;100.00;102109.63;4992882;28;20513;-80
2022/01/21 10:21:44;;;;;;;0.20;0.20;;;;;;;-0.27;100.00;102109.44;4992415;28;20049;-77
2022/01/21 10:24:18;;;;;;;0.10;0.10;;;;;;;-0.28;100.00;102121.13;4999327;28;20053;-79
2022/01/21 10:26:53;;;;;;;0.20;0.20;;;;;;;-0.22;100.00;102121.28;4996819;28;20068;-78
2022/01/21 10:29:36;;;;;;;0.17;0.17;;;;;;;-0.06;100.00;102122.22;5001470;28;20635;-79
2022/01/21 10:32:09;;;;;;;0.10;0.10;;;;;;;-0.06;100.00;102117.69;5010206;28;20046;-79
2022/01/21 10:34:45;;;;;;;0.13;0.13;;;;;;;-0.01;100.00;102130.56;4995914;28;20401;-79
2022/01/21 10:37:25;;;;;;;0.10;0.10;;;;;;;0.04;100.00;102135.41;4990035;28;20049;-77
2022/01/21 10:40:00;;;;;;;0.17;0.17;;;;;;;0.07;100.00;102122.50;5003482;28;20049;-78
2022/01/21 10:42:29;;;;;;;0.20;0.20;;;;;;;0.17;100.00;102141.03;4991964;28;20072;-79
2022/01/21 10:45:06;;;;;;;0.10;0.10;;;;;;;0.23;100.00;102140.31;4990546;28;20057;-79
2022/01/21 10:47:48;;;;;;;0.10;0.10;;;;;;;0.27;100.00;102143.50;4993600;28;20610;-78
2022/01/21 10:50:24;;;;;;;0.13;0.13;;;;;;;0.26;100.00;102140.00;4998308;28;20053;-79
2022/01/21 10:52:57;;;;;;;0.10;0.10;;;;;;;0.28;100.00;102143.31;4996817;28;20050;-80
2022/01/21 10:55:29;;;;;;;0.10;0.10;;;;;;;0.32;100.00;102147.31;4989934;28;20083;-79
2022/01/21 10:58:05;;;;;;;0.30;0.30;;;;;;;0.37;100.00;102140.59;5010649;28;20053;-79
2022/01/21 11:00:58;;;;;;;0.17;0.17;;;;;;;0.44;100.00;102144.22;5000482;28;20572;-78
2022/01/21 11:03:31;;;;;;;0.10;0.10;;;;;;;0.39;100.00;102142.09;4997106;28;20221;-79
2022/01/21 11:06:14;;;;;;;0.10;0.10;;;;;;;0.46;100.00;102151.09;4990123;28;20486;-79
2022/01/21 11:08:47;;;;;;;0.20;0.20;;;;;;;0.54;100.00;102141.34;4996942;28;20054;-80
2022/01/21 11:11:23;;;;;;;0.10;0.10;;;;;;;0.61;100.00;102139.63;4991848;28;20417;-80
2022/01/21 11:13:51;;;;;;;0.20;0.20;;;;;;;0.55;100.00;102140.31;4991260;28;20411;-80
2022/01/21 11:16:25;;;;;;;0.20;0.20;;;;;;;0.76;100.00;102135.16;4990234;28;20057;-80
2022/01/21 11:18:57;;;;;;;0.20;0.20;;;;;;;0.70;100.00;102130.50;4995239;28;20475;-80
2022/01/21 11:21:43;;;;;;;0.10;0.10;;;;;;;0.79;100.00;102136.66;4991326;28;20054;-77
2022/01/21 11:24:12;;;;;;;0.10;0.10;;;;;;;0.85;100.00;102126.03;4995420;28;20049;-80
2022/01/21 11:27:05;;;;;;;0.10;0.10;;;;;;;0.75;100.00;102125.47;5004556;28;20060;-80
2022/01/21 11:29:39;;;;;;;0.10;0.10;;;;;;;0.78;100.00;102118.91;4992804;28;20064;-79
2022/01/21 11:32:14;;;;;;;0.20;0.20;;;;;;;0.93;100.00;102127.00;5003691;28;20489;-78
2022/01/21 11:34:47;;;;;;;0.10;0.10;;;;;;;0.86;100.00;102121.53;4997409;28;20477;-79
2022/01/21 11:37:21;;;;;;;0.20;0.20;;;;;;;0.91;100.00;102129.03;5008717;28;20057;-79
2022/01/21 11:39:55;;;;;;;0.20;0.20;;;;;;;1.02;100.00;102126.75;4997382;28;20057;-78
2022/01/21 11:42:30;;;;;;;0.17;0.17;;;;;;;1.01;100.00;102121.59;4996667;28;20084;-78
2022/01/21 11:45:18;;;;;;;0.20;0.20;;;;;;;1.10;100.00;102117.78;4992385;28;20064;-80
2022/01/21 11:48:11;;;;;;;0.20;0.20;;;;;;;1.10;100.00;102114.28;5006682;28;20056;-79
2022/01/21 11:50:49;;;;;;;0.20;0.20;;;;;;;1.12;100.00;102107.72;5006296;28;20052;-80
2022/01/21 11:53:48;;;;;;;0.20;0.20;;;;;;;1.23;100.00;102109.16;4994499;28;20236;-81
2022/01/21 11:56:39;;;;;;;0.17;0.17;;;;;;;1.39;100.00;102099.28;4998816;28;20068;-77
2022/01/21 11:59:30;;;;;;;0.10;0.10;;;;;;;1.34;100.00;102106.00;4997462;28;20061;-79
2022/01/21 12:02:00;;;;;;;0.20;0.20;;;;;;;1.40;100.00;102098.25;5006410;28;20053;-80
2022/01/21 12:04:41;;;;;;;0.20;0.20;;;;;;;1.44;100.00;102091.50;4997544;28;20516;-79
2022/01/21 12:07:48;;;;;;;0.10;0.10;;;;;;;1.48;100.00;102096.31;4993615;28;21565;-79
2022/01/21 12:10:31;;;;;;;0.10;0.10;;;;;;;1.60;100.00;102093.16;5022279;28;20053;-78
2022/01/21 12:13:15;;;;;;;0.20;0.20;;;;;;;1.66;100.00;102097.81;5000574;28;20060;-79
2022/01/21 12:16:22;;;;;;;0.20;0.20;;;;;;;1.71;100.00;102090.00;4995384;28;20365;-78
2022/01/21 12:19:18;;;;;;;0.10;0.10;;;;;;;1.72;100.00;102080.13;4991409;28;20050;-79
2022/01/21 12:21:53;;;;;;;0.10;0.10;;;;;;;1.74;100.00;102078.06;4996973;28;20057;-78
2022/01/21 12:24:55;;;;;;;0.10;0.10;;;;;;;1.76;100.00;102070.69;5008219;28;20092;-79
2022/01/21 12:27:28;;;;;;;0.10;0.10;;;;;;;1.81;100.00;102074.47;5000787;28;20671;-80
2022/01/21 12:30:29;;;;;;;0.20;0.20;;;;;;;1.89;100.00;102070.81;4999957;28;20577;-80
2022/01/21 12:33:11;;;;;;;0.20;0.20;;;;;;;1.91;100.00;102066.13;5004362;28;21382;-77
2022/01/21 12:36:00;;;;;;;0.10;0.10;;;;;;;1.86;100.00;102063.16;5006395;28;20057;-79